sensor_id;sensor_type;location;lat;lon;timestamp;pressure;altitude;pressure_sealevel;temperature;humidity
65754;BME280;69207;47.502;18.940;2023-08-20T00:00:47;98485.13;;;19.99;100.00
65754;BME280;69207;47.502;18.940;2023-08-20T00:01:55;98484.50;;;20.01;100.00
65754;BME280;69207;47.502;18.940;2023-08-20T00:03:11;98480.34;;;20.02;100.00
65754;BME280;69207;47.502;18.940;2023-08-20T00:04:15;98479.56;;;19.99;100.00
65754;BME280;69207;47.502;18.940;2023-08-20T00:05:18;98480.19;;;19.98;100.00
65754;BME280;69207;47.502;18.940;2023-08-20T00:06:23;98485.03;;;19.97;100.00
65754;BME280;69207;47.502;18.940;2023-08-20T00:07:26;98476.06;;;19.99;100.00
65754;BME280;69207;47.502;18.940;2023-08-20T00:08:29;98478.09;;;19.98;100.00
65754;BME280;69207;47.502;18.940;2023-08-20T00:09:32;98475.97;;;19.97;100.00
65754;BME280;69207;47.502;18.940;2023-08-20T00:10:35;98473.19;;;19.97;100.00
65754;BME280;69207;47.502;18.940;2023-08-20T00:11:38;98475.97;;;19.97;100.00
65754;BME280;69207;47.502;18.940;2023-08-20T00:12:41;98480.03;;;19.94;100.00
65754;BME280;69207;47.502;18.940;2023-08-20T00:13:44;98475.81;;;19.93;100.00
65754;BME280;69207;47.502;18.940;2023-08-20T00:14:58;98473.75;;;19.93;100.00
65754;BME280;69207;47.502;18.940;2023-08-20T00:16:08;98473.09;;;19.95;100.00
65754;BME280;69207;47.502;18.940;2023-08-20T00:17:11;98477.97;;;19.94;100.00
65754;BME280;69207;47.502;18.940;2023-08-20T00:18:15;98472.41;;;19.94;100.00
65754;BME280;69207;47.502;18.940;2023-08-20T00:19:18;98467.53;;;19.95;100.00
65754;BME280;69207;47.502;18.940;2023-08-20T00:20:22;98473.09;;;19.95;100.00
65754;BME280;69207;47.502;18.940;2023-08-20T00:21:25;98473.81;;;19.95;100.00
65754;BME280;69207;47.502;18.940;2023-08-20T00:22:30;98466.09;;;19.94;100.00
65754;BME280;69207;47.502;18.940;2023-08-20T00:23:35;98469.37;;;19.88;100.00
65754;BME280;69207;47.502;18.940;2023-08-20T00:24:39;98466.44;;;19.84;100.00
65754;BME280;69207;47.502;18.940;2023-08-20T00:25:43;98466.34;;;19.82;100.00
65754;BME280;69207;47.502;18.940;2023-08-20T00:26:46;98468.41;;;19.82;100.00
65754;BME280;69207;47.502;18.940;2023-08-20T00:27:50;98465.56;;;19.80;100.00
65754;BME280;69207;47.502;18.940;2023-08-20T00:28:53;98465.56;;;19.80;100.00
65754;BME280;69207;47.502;18.940;2023-08-20T00:29:56;98475.28;;;19.78;100.00
65754;BME280;69207;47.502;18.940;2023-08-20T00:30:59;98464.03;;;19.76;100.00
65754;BME280;69207;47.502;18.940;2023-08-20T00:32:02;98479.44;;;19.77;100.00
65754;BME280;69207;47.502;18.940;2023-08-20T00:33:05;98469.69;;;19.78;100.00
65754;BME280;69207;47.502;18.940;2023-08-20T00:34:08;98467.69;;;19.81;100.00
65754;BME280;69207;47.502;18.940;2023-08-20T00:35:11;98463.56;;;19.82;100.00
65754;BME280;69207;47.502;18.940;2023-08-20T00:36:14;98462.13;;;19.81;100.00
65754;BME280;69207;47.502;18.940;2023-08-20T00:37:17;98471.84;;;19.80;100.00
65754;BME280;69207;47.502;18.940;2023-08-20T00:38:20;98464.13;;;19.78;100.00
65754;BME280;69207;47.502;18.940;2023-08-20T00:39:23;98464.13;;;19.78;100.00
65754;BME280;69207;47.502;18.940;2023-08-20T00:40:26;98461.34;;;19.78;100.00
65754;BME280;69207;47.502;18.940;2023-08-20T00:41:29;98461.41;;;19.81;100.00
65754;BME280;69207;47.502;18.940;2023-08-20T00:42:32;98461.56;;;19.85;100.00
65754;BME280;69207;47.502;18.940;2023-08-20T00:43:35;98460.91;;;19.86;100.00
65754;BME280;69207;47.502;18.940;2023-08-20T00:44:38;98458.78;;;19.85;100.00
65754;BME280;69207;47.502;18.940;2023-08-20T00:45:43;98461.56;;;19.85;100.00
65754;BME280;69207;47.502;18.940;2023-08-20T00:46:47;98461.56;;;19.85;100.00
65754;BME280;69207;47.502;18.940;2023-08-20T00:47:51;98462.94;;;19.84;100.00
65754;BME280;69207;47.502;18.940;2023-08-20T00:48:54;98459.34;;;19.81;100.00
65754;BME280;69207;47.502;18.940;2023-08-20T00:49:58;98465.62;;;19.82;100.00
65754;BME280;69207;47.502;18.940;2023-08-20T00:51:01;98460.75;;;19.82;100.00
65754;BME280;69207;47.502;18.940;2023-08-20T00:52:07;98459.56;;;19.87;100.00
65754;BME280;69207;47.502;18.940;2023-08-20T00:53:11;98461.63;;;19.87;100.00
65754;BME280;69207;47.502;18.940;2023-08-20T00:54:16;98463.09;;;19.88;100.00
65754;BME280;69207;47.502;18.940;2023-08-20T00:55:19;98466.59;;;19.88;100.00
65754;BME280;69207;47.502;18.940;2023-08-20T00:56:22;98466.59;;;19.88;100.00
65754;BME280;69207;47.502;18.940;2023-08-20T00:57:26;98461.63;;;19.87;100.00
65754;BME280;69207;47.502;18.940;2023-08-20T00:58:29;98465.06;;;19.85;100.00
65754;BME280;69207;47.502;18.940;2023-08-20T00:59:32;98460.84;;;19.84;100.00
65754;BME280;69207;47.502;18.940;2023-08-20T01:00:36;98471.34;;;19.86;100.00
65754;BME280;69207;47.502;18.940;2023-08-20T01:02:42;98465.12;;;19.87;100.00
65754;BME280;69207;47.502;18.940;2023-08-20T01:03:48;98467.22;;;19.87;100.00
65754;BME280;69207;47.502;18.940;2023-08-20T01:04:52;98463.00;;;19.86;100.00
65754;BME280;69207;47.502;18.940;2023-08-20T01:06:53;98464.34;;;19.85;100.00
65754;BME280;69207;47.502;18.940;2023-08-20T01:12:03;98469.44;;;19.90;100.00
65754;BME280;69207;47.502;18.940;2023-08-20T01:13:07;98466.66;;;19.90;100.00
65754;BME280;69207;47.502;18.940;2023-08-20T01:14:16;98467.31;;;19.89;100.00
65754;BME280;69207;47.502;18.940;2023-08-20T01:15:20;98473.50;;;19.87;100.00
65754;BME280;69207;47.502;18.940;2023-08-20T01:16:23;98466.50;;;19.86;100.00
65754;BME280;69207;47.502;18.940;2023-08-20T01:17:26;98465.78;;;19.86;100.00
65754;BME280;69207;47.502;18.940;2023-08-20T01:18:30;98470.00;;;19.87;100.00
65754;BME280;69207;47.502;18.940;2023-08-20T01:19:33;98474.16;;;19.86;100.00
65754;BME280;69207;47.502;18.940;2023-08-20T01:20:41;98474.25;;;19.88;100.00
65754;BME280;69207;47.502;18.940;2023-08-20T01:26:01;98470.22;;;19.93;100.00
65754;BME280;69207;47.502;18.940;2023-08-20T01:27:35;98480.12;;;19.96;100.00
65754;BME280;69207;47.502;18.940;2023-08-20T01:28:39;98476.19;;;20.03;100.00
65754;BME280;69207;47.502;18.940;2023-08-20T01:29:43;98474.81;;;20.04;100.00
65754;BME280;69207;47.502;18.940;2023-08-20T01:30:46;98472.62;;;20.00;100.00
65754;BME280;69207;47.502;18.940;2023-08-20T01:31:50;98476.69;;;19.97;100.00
65754;BME280;69207;47.502;18.940;2023-08-20T01:32:54;98473.00;;;19.93;100.00
65754;BME280;69207;47.502;18.940;2023-08-20T01:33:58;98481.38;;;19.93;100.00
65754;BME280;69207;47.502;18.940;2023-08-20T01:35:02;98475.75;;;19.91;100.00
65754;BME280;69207;47.502;18.940;2023-08-20T01:36:07;98472.16;;;19.88;100.00
65754;BME280;69207;47.502;18.940;2023-08-20T01:37:12;98470.09;;;19.89;100.00
65754;BME280;69207;47.502;18.940;2023-08-20T01:38:15;98461.00;;;19.88;100.00
65754;BME280;69207;47.502;18.940;2023-08-20T01:39:18;98474.25;;;19.88;100.00
65754;BME280;69207;47.502;18.940;2023-08-20T01:40:21;98468.56;;;19.86;100.00
65754;BME280;69207;47.502;18.940;2023-08-20T01:41:24;98476.78;;;19.82;100.00
65754;BME280;69207;47.502;18.940;2023-08-20T01:42:27;98472.56;;;19.81;100.00
65754;BME280;69207;47.502;18.940;2023-08-20T01:43:30;98469.69;;;19.78;100.00
65754;BME280;69207;47.502;18.940;2023-08-20T01:44:33;98467.63;;;19.79;100.00
65754;BME280;69207;47.502;18.940;2023-08-20T01:45:36;98474.63;;;19.80;100.00
65754;BME280;69207;47.502;18.940;2023-08-20T01:46:39;98474.00;;;19.82;100.00
65754;BME280;69207;47.502;18.940;2023-08-20T01:47:42;98475.50;;;19.85;100.00
65754;BME280;69207;47.502;18.940;2023-08-20T01:48:46;98475.56;;;19.87;100.00
65754;BME280;69207;47.502;18.940;2023-08-20T01:49:49;98469.37;;;19.88;100.00
65754;BME280;69207;47.502;18.940;2023-08-20T01:50:52;98471.59;;;19.92;100.00
65754;BME280;69207;47.502;18.940;2023-08-20T01:51:55;98470.09;;;19.89;100.00
65754;BME280;69207;47.502;18.940;2023-08-20T01:52:58;98472.88;;;19.89;100.00
65754;BME280;69207;47.502;18.940;2023-08-20T01:54:00;98474.88;;;19.86;100.00
65754;BME280;69207;47.502;18.940;2023-08-20T01:55:05;98470.66;;;19.85;100.00
65754;BME280;69207;47.502;18.940;2023-08-20T01:56:12;98474.00;;;19.82;100.00
65754;BME280;69207;47.502;18.940;2023-08-20T01:57:15;98474.00;;;19.82;100.00
65754;BME280;69207;47.502;18.940;2023-08-20T01:58:18;98471.28;;;19.84;100.00
65754;BME280;69207;47.502;18.940;2023-08-20T01:59:22;98473.44;;;19.85;100.00
65754;BME280;69207;47.502;18.940;2023-08-20T02:00:26;98474.88;;;19.86;100.00
65754;BME280;69207;47.502;18.940;2023-08-20T02:01:30;98476.28;;;19.87;100.00
65754;BME280;69207;47.502;18.940;2023-08-20T02:02:33;98477.75;;;19.88;100.00
65754;BME280;69207;47.502;18.940;2023-08-20T02:03:37;98479.06;;;19.87;100.00
65754;BME280;69207;47.502;18.940;2023-08-20T02:04:42;98481.88;;;19.87;100.00
65754;BME280;69207;47.502;18.940;2023-08-20T02:05:45;98472.16;;;19.88;100.00
65754;BME280;69207;47.502;18.940;2023-08-20T02:06:48;98473.50;;;19.87;100.00
65754;BME280;69207;47.502;18.940;2023-08-20T02:07:52;98480.53;;;19.88;100.00
65754;BME280;69207;47.502;18.940;2023-08-20T02:08:54;98476.28;;;19.87;100.00
65754;BME280;69207;47.502;18.940;2023-08-20T02:09:57;98470.81;;;19.89;100.00
65754;BME280;69207;47.502;18.940;2023-08-20T02:11:04;98472.88;;;19.89;100.00
65754;BME280;69207;47.502;18.940;2023-08-20T02:12:07;98472.78;;;19.87;100.00
65754;BME280;69207;47.502;18.940;2023-08-20T02:13:10;98461.63;;;19.87;100.00
65754;BME280;69207;47.502;18.940;2023-08-20T02:14:13;98475.44;;;19.83;100.00
65754;BME280;69207;47.502;18.940;2023-08-20T02:15:16;98463.56;;;19.82;100.00
65754;BME280;69207;47.502;18.940;2023-08-20T02:16:19;98470.47;;;19.81;100.00
65754;BME280;69207;47.502;18.940;2023-08-20T02:17:22;98465.62;;;19.82;100.00
65754;BME280;69207;47.502;18.940;2023-08-20T02:18:26;98463.47;;;19.80;100.00
65754;BME280;69207;47.502;18.940;2023-08-20T02:19:29;98461.41;;;19.81;100.00
65754;BME280;69207;47.502;18.940;2023-08-20T02:20:32;98465.56;;;19.80;100.00
65754;BME280;69207;47.502;18.940;2023-08-20T02:21:35;98457.84;;;19.78;100.00
65754;BME280;69207;47.502;18.940;2023-08-20T02:22:38;98465.50;;;19.77;100.00
65754;BME280;69207;47.502;18.940;2023-08-20T02:23:41;98455.75;;;19.78;100.00
65754;BME280;69207;47.502;18.940;2023-08-20T02:24:44;98455.66;;;19.76;100.00
65754;BME280;69207;47.502;18.940;2023-08-20T02:25:47;98463.41;;;19.78;100.00
65754;BME280;69207;47.502;18.940;2023-08-20T02:26:50;98455.66;;;19.76;100.00
65754;BME280;69207;47.502;18.940;2023-08-20T02:27:53;98461.25;;;19.76;100.00
65754;BME280;69207;47.502;18.940;2023-08-20T02:28:56;98464.03;;;19.76;100.00
65754;BME280;69207;47.502;18.940;2023-08-20T02:29:59;98466.81;;;19.76;100.00
65754;BME280;69207;47.502;18.940;2023-08-20T02:31:04;98458.47;;;19.76;100.00
65754;BME280;69207;47.502;18.940;2023-08-20T02:32:07;98466.81;;;19.76;100.00
65754;BME280;69207;47.502;18.940;2023-08-20T02:33:11;98464.13;;;19.78;100.00
65754;BME280;69207;47.502;18.940;2023-08-20T02:34:14;98461.41;;;19.81;100.00
65754;BME280;69207;47.502;18.940;2023-08-20T02:35:17;98462.75;;;19.80;100.00
65754;BME280;69207;47.502;18.940;2023-08-20T02:36:20;98466.81;;;19.76;100.00
65754;BME280;69207;47.502;18.940;2023-08-20T02:37:23;98462.69;;;19.77;100.00
65754;BME280;69207;47.502;18.940;2023-08-20T02:38:26;98459.91;;;19.77;100.00
65754;BME280;69207;47.502;18.940;2023-08-20T02:39:29;98457.19;;;19.80;100.00
65754;BME280;69207;47.502;18.940;2023-08-20T02:40:39;98462.69;;;19.77;100.00
65754;BME280;69207;47.502;18.940;2023-08-20T02:41:43;98464.13;;;19.78;100.00
65754;BME280;69207;47.502;18.940;2023-08-20T02:42:46;98463.41;;;19.78;100.00
65754;BME280;69207;47.502;18.940;2023-08-20T02:43:49;98460.63;;;19.78;100.00
65754;BME280;69207;47.502;18.940;2023-08-20T02:44:52;98458.62;;;19.81;100.00
65754;BME280;69207;47.502;18.940;2023-08-20T02:45:54;98466.28;;;19.80;100.00
65754;BME280;69207;47.502;18.940;2023-08-20T02:46:57;98458.56;;;19.78;100.00
65754;BME280;69207;47.502;18.940;2023-08-20T02:48:00;98457.84;;;19.78;100.00
65754;BME280;69207;47.502;18.940;2023-08-20T02:49:04;98459.19;;;19.77;100.00
65754;BME280;69207;47.502;18.940;2023-08-20T02:50:07;98463.97;;;19.74;100.00
65754;BME280;69207;47.502;18.940;2023-08-20T02:51:10;98466.69;;;19.72;100.00
65754;BME280;69207;47.502;18.940;2023-08-20T02:52:13;98451.22;;;19.69;100.00
65754;BME280;69207;47.502;18.940;2023-08-20T02:53:16;98469.25;;;19.66;100.00
65754;BME280;69207;47.502;18.940;2023-08-20T02:54:19;98468.44;;;19.64;100.00
65754;BME280;69207;47.502;18.940;2023-08-20T02:55:22;98469.06;;;19.62;100.00
65754;BME280;69207;47.502;18.940;2023-08-20T02:56:24;98459.91;;;19.60;100.00
65754;BME280;69207;47.502;18.940;2023-08-20T02:57:27;98466.84;;;19.59;100.00
65754;BME280;69207;47.502;18.940;2023-08-20T02:58:30;98466.84;;;19.59;100.00
65754;BME280;69207;47.502;18.940;2023-08-20T02:59:33;98462.06;;;19.61;100.00
65754;BME280;69207;47.502;18.940;2023-08-20T03:00:36;98460.66;;;19.60;100.00
65754;BME280;69207;47.502;18.940;2023-08-20T03:01:39;98461.25;;;19.59;100.00
65754;BME280;69207;47.502;18.940;2023-08-20T03:02:42;98465.38;;;19.58;100.00
65754;BME280;69207;47.502;18.940;2023-08-20T03:03:45;98464.66;;;19.57;100.00
65754;BME280;69207;47.502;18.940;2023-08-20T03:04:48;98460.44;;;19.56;100.00
65754;BME280;69207;47.502;18.940;2023-08-20T03:05:51;98465.31;;;19.56;100.00
65754;BME280;69207;47.502;18.940;2023-08-20T03:06:54;98461.09;;;19.55;100.00
65754;BME280;69207;47.502;18.940;2023-08-20T03:07:57;98466.03;;;19.56;100.00
65754;BME280;69207;47.502;18.940;2023-08-20T03:09:00;98463.16;;;19.54;100.00
65754;BME280;69207;47.502;18.940;2023-08-20T03:10:03;98461.00;;;19.52;100.00
65754;BME280;69207;47.502;18.940;2023-08-20T03:11:07;98458.16;;;19.50;100.00
65754;BME280;69207;47.502;18.940;2023-08-20T03:12:10;98456.72;;;19.49;100.00
65754;BME280;69207;47.502;18.940;2023-08-20T03:13:13;98455.19;;;19.46;100.00
65754;BME280;69207;47.502;18.940;2023-08-20T03:14:16;98461.31;;;19.43;100.00
65754;BME280;69207;47.502;18.940;2023-08-20T03:15:19;98466.28;;;19.44;100.00
65754;BME280;69207;47.502;18.940;2023-08-20T03:16:22;98453.13;;;19.47;100.00
65754;BME280;69207;47.502;18.940;2023-08-20T03:17:26;98463.00;;;19.50;100.00
65754;BME280;69207;47.502;18.940;2023-08-20T03:18:29;98461.56;;;19.49;100.00
65754;BME280;69207;47.502;18.940;2023-08-20T03:19:33;98465.62;;;19.46;100.00
65754;BME280;69207;47.502;18.940;2023-08-20T03:20:38;98466.81;;;19.41;100.00
65754;BME280;69207;47.502;18.940;2023-08-20T03:21:41;98468.09;;;19.38;100.00
65754;BME280;69207;47.502;18.940;2023-08-20T03:22:44;98458.38;;;19.39;100.00
65754;BME280;69207;47.502;18.940;2023-08-20T03:23:47;98463.97;;;19.39;100.00
65754;BME280;69207;47.502;18.940;2023-08-20T03:24:51;98465.38;;;19.40;100.00
65754;BME280;69207;47.502;18.940;2023-08-20T03:25:58;98466.16;;;19.42;100.00
65754;BME280;69207;47.502;18.940;2023-08-20T03:27:01;98466.16;;;19.42;100.00
65754;BME280;69207;47.502;18.940;2023-08-20T03:28:05;98471.13;;;19.44;100.00
65754;BME280;69207;47.502;18.940;2023-08-20T03:29:08;98468.25;;;19.42;100.00
65754;BME280;69207;47.502;18.940;2023-08-20T03:30:11;98463.97;;;19.39;100.00
65754;BME280;69207;47.502;18.940;2023-08-20T03:31:14;98470.88;;;19.38;100.00
65754;BME280;69207;47.502;18.940;2023-08-20T03:32:18;98463.78;;;19.35;100.00
65754;BME280;69207;47.502;18.940;2023-08-20T03:33:21;98464.34;;;19.31;100.00
65754;BME280;69207;47.502;18.940;2023-08-20T03:34:24;98468.47;;;19.30;100.00
65754;BME280;69207;47.502;18.940;2023-08-20T03:35:27;98469.37;;;19.35;100.00
65754;BME280;69207;47.502;18.940;2023-08-20T03:36:30;98469.19;;;19.31;100.00
65754;BME280;69207;47.502;18.940;2023-08-20T03:37:33;98472.16;;;19.35;100.00
65754;BME280;69207;47.502;18.940;2023-08-20T03:38:36;98469.28;;;19.33;100.00
65754;BME280;69207;47.502;18.940;2023-08-20T03:39:39;98470.47;;;19.28;100.00
65754;BME280;69207;47.502;18.940;2023-08-20T03:40:42;98471.91;;;19.29;100.00
65754;BME280;69207;47.502;18.940;2023-08-20T03:41:45;98477.53;;;19.31;100.00
65754;BME280;69207;47.502;18.940;2023-08-20T03:42:47;98475.41;;;19.29;100.00
65754;BME280;69207;47.502;18.940;2023-08-20T03:43:50;98469.84;;;19.29;100.00
65754;BME280;69207;47.502;18.940;2023-08-20T03:44:53;98480.91;;;19.27;100.00
65754;BME280;69207;47.502;18.940;2023-08-20T03:45:56;98471.03;;;19.24;100.00
65754;BME280;69207;47.502;18.940;2023-08-20T03:46:59;98478.59;;;19.21;100.00
65754;BME280;69207;47.502;18.940;2023-08-20T03:48:02;98470.84;;;19.20;100.00
65754;BME280;69207;47.502;18.940;2023-08-20T03:49:05;98486.13;;;19.19;100.00
65754;BME280;69207;47.502;18.940;2023-08-20T03:50:08;98478.31;;;19.15;100.00
65754;BME280;69207;47.502;18.940;2023-08-20T03:51:12;98484.53;;;19.14;100.00
65754;BME280;69207;47.502;18.940;2023-08-20T03:52:15;98480.97;;;19.11;100.00
65754;BME280;69207;47.502;18.940;2023-08-20T03:53:18;98486.59;;;19.13;100.00
65754;BME280;69207;47.502;18.940;2023-08-20T03:54:21;98488.12;;;19.16;100.00
65754;BME280;69207;47.502;18.940;2023-08-20T03:55:24;98485.34;;;19.16;100.00
65754;BME280;69207;47.502;18.940;2023-08-20T03:56:27;98486.66;;;19.15;100.00
65754;BME280;69207;47.502;18.940;2023-08-20T03:57:30;98491.47;;;19.13;100.00
65754;BME280;69207;47.502;18.940;2023-08-20T03:58:33;98491.47;;;19.13;100.00
65754;BME280;69207;47.502;18.940;2023-08-20T03:59:36;98490.03;;;19.12;100.00
65754;BME280;69207;47.502;18.940;2023-08-20T04:00:39;98495.59;;;19.12;100.00
65754;BME280;69207;47.502;18.940;2023-08-20T04:01:42;98496.94;;;19.11;100.00
65754;BME280;69207;47.502;18.940;2023-08-20T04:02:44;98496.31;;;19.12;100.00
65754;BME280;69207;47.502;18.940;2023-08-20T04:03:48;98492.81;;;19.12;100.00
65754;BME280;69207;47.502;18.940;2023-08-20T04:04:51;98490.75;;;19.12;100.00
65754;BME280;69207;47.502;18.940;2023-08-20T04:05:53;98488.59;;;19.11;100.00
65754;BME280;69207;47.502;18.940;2023-08-20T04:06:56;98490.03;;;19.12;100.00
65754;BME280;69207;47.502;18.940;2023-08-20T04:07:59;98493.34;;;19.08;100.00
65754;BME280;69207;47.502;18.940;2023-08-20T04:09:02;98493.34;;;19.08;100.00
65754;BME280;69207;47.502;18.940;2023-08-20T04:10:07;98490.66;;;19.10;100.00
65754;BME280;69207;47.502;18.940;2023-08-20T04:11:11;98487.13;;;19.10;100.00
65754;BME280;69207;47.502;18.940;2023-08-20T04:12:14;98487.41;;;19.16;100.00
65754;BME280;69207;47.502;18.940;2023-08-20T04:13:17;98490.91;;;19.16;100.00
65754;BME280;69207;47.502;18.940;2023-08-20T04:14:20;98489.56;;;19.17;100.00
65754;BME280;69207;47.502;18.940;2023-08-20T04:15:22;98499.97;;;19.17;100.00
65754;BME280;69207;47.502;18.940;2023-08-20T04:16:25;98498.00;;;19.19;100.00
65754;BME280;69207;47.502;18.940;2023-08-20T04:17:28;98502.19;;;19.20;100.00
65754;BME280;69207;47.502;18.940;2023-08-20T04:18:31;98506.44;;;19.21;100.00
65754;BME280;69207;47.502;18.940;2023-08-20T04:19:34;98507.87;;;19.22;100.00
65754;BME280;69207;47.502;18.940;2023-08-20T04:20:37;98502.38;;;19.24;100.00
65754;BME280;69207;47.502;18.940;2023-08-20T04:21:40;98500.94;;;19.23;100.00
65754;BME280;69207;47.502;18.940;2023-08-20T04:22:43;98503.25;;;19.29;100.00
65754;BME280;69207;47.502;18.940;2023-08-20T04:23:46;98503.25;;;19.29;100.00
65754;BME280;69207;47.502;18.940;2023-08-20T04:24:49;98500.66;;;19.33;100.00
65754;BME280;69207;47.502;18.940;2023-08-20T04:25:52;98501.38;;;19.34;100.00
65754;BME280;69207;47.502;18.940;2023-08-20T04:26:55;98504.94;;;19.36;100.00
65754;BME280;69207;47.502;18.940;2023-08-20T04:27:59;98504.31;;;19.38;100.00
65754;BME280;69207;47.502;18.940;2023-08-20T04:29:02;98502.31;;;19.40;100.00
65754;BME280;69207;47.502;18.940;2023-08-20T04:30:06;98496.91;;;19.44;100.00
65754;BME280;69207;47.502;18.940;2023-08-20T04:31:09;98507.50;;;19.48;100.00
65754;BME280;69207;47.502;18.940;2023-08-20T04:32:12;98501.19;;;19.47;100.00
65754;BME280;69207;47.502;18.940;2023-08-20T04:33:15;98506.06;;;19.47;100.00
65754;BME280;69207;47.502;18.940;2023-08-20T04:34:18;98510.28;;;19.48;100.00
65754;BME280;69207;47.502;18.940;2023-08-20T04:35:21;98513.16;;;19.50;100.00
65754;BME280;69207;47.502;18.940;2023-08-20T04:36:24;98511.16;;;19.52;100.00
65754;BME280;69207;47.502;18.940;2023-08-20T04:37:28;98511.97;;;19.55;100.00
65754;BME280;69207;47.502;18.940;2023-08-20T04:38:30;98516.91;;;19.57;100.00
65754;BME280;69207;47.502;18.940;2023-08-20T04:39:33;98514.84;;;19.57;100.00
65754;BME280;69207;47.502;18.940;2023-08-20T04:40:36;98516.38;;;19.60;100.00
65754;BME280;69207;47.502;18.940;2023-08-20T04:41:40;98517.25;;;19.65;100.00
65754;BME280;69207;47.502;18.940;2023-08-20T04:42:43;98513.84;;;19.66;100.00
65754;BME280;69207;47.502;18.940;2023-08-20T04:43:46;98516.69;;;19.68;100.00
65754;BME280;69207;47.502;18.940;2023-08-20T04:44:49;98518.22;;;19.71;100.00
65754;BME280;69207;47.502;18.940;2023-08-20T04:45:52;98518.28;;;19.73;100.00
65754;BME280;69207;47.502;18.940;2023-08-20T04:46:55;98520.53;;;19.77;100.00
65754;BME280;69207;47.502;18.940;2023-08-20T04:47:59;98521.94;;;19.78;100.00
65754;BME280;69207;47.502;18.940;2023-08-20T04:49:02;98518.44;;;19.77;100.00
65754;BME280;69207;47.502;18.940;2023-08-20T04:50:06;98514.31;;;19.78;100.00
65754;BME280;69207;47.502;18.940;2023-08-20T04:51:09;98517.09;;;19.78;100.00
65754;BME280;69207;47.502;18.940;2023-08-20T04:52:13;98518.53;;;19.80;100.00
65754;BME280;69207;47.502;18.940;2023-08-20T04:53:16;98524.16;;;19.82;100.00
65754;BME280;69207;47.502;18.940;2023-08-20T04:54:19;98520.03;;;19.83;100.00
65754;BME280;69207;47.502;18.940;2023-08-20T04:55:22;98528.78;;;19.93;100.00
65754;BME280;69207;47.502;18.940;2023-08-20T04:56:25;98525.59;;;20.00;100.00
65754;BME280;69207;47.502;18.940;2023-08-20T04:57:28;98519.44;;;20.04;100.00
65754;BME280;69207;47.502;18.940;2023-08-20T04:58:31;98527.91;;;20.06;100.00
65754;BME280;69207;47.502;18.940;2023-08-20T04:59:34;98528.13;;;20.12;100.00
65754;BME280;69207;47.502;18.940;2023-08-20T05:00:37;98519.78;;;20.12;100.00
65754;BME280;69207;47.502;18.940;2023-08-20T05:01:40;98521.84;;;20.12;100.00
65754;BME280;69207;47.502;18.940;2023-08-20T05:02:43;98523.81;;;20.09;100.00
65754;BME280;69207;47.502;18.940;2023-08-20T05:03:46;98524.47;;;20.08;100.00
65754;BME280;69207;47.502;18.940;2023-08-20T05:04:50;98522.41;;;20.08;100.00
65754;BME280;69207;47.502;18.940;2023-08-20T05:05:53;98530.06;;;20.08;100.00
65754;BME280;69207;47.502;18.940;2023-08-20T05:06:56;98525.19;;;20.08;100.00
65754;BME280;69207;47.502;18.940;2023-08-20T05:07:59;98529.34;;;20.07;100.00
65754;BME280;69207;47.502;18.940;2023-08-20T05:09:02;98523.13;;;20.09;100.00
65754;BME280;69207;47.502;18.940;2023-08-20T05:10:06;98529.41;;;20.09;100.00
65754;BME280;69207;47.502;18.940;2023-08-20T05:11:09;98530.84;;;20.10;100.00
65754;BME280;69207;47.502;18.940;2023-08-20T05:12:12;98530.22;;;20.12;100.00
65754;BME280;69207;47.502;18.940;2023-08-20T05:13:15;98534.59;;;20.17;100.00
65754;BME280;69207;47.502;18.940;2023-08-20T05:14:19;98532.19;;;20.27;100.00
65754;BME280;69207;47.502;18.940;2023-08-20T05:15:22;98539.31;;;20.32;100.00
65754;BME280;69207;47.502;18.940;2023-08-20T05:16:25;98540.91;;;20.37;100.00
65754;BME280;69207;47.502;18.940;2023-08-20T05:17:28;98542.59;;;20.44;100.00
65754;BME280;69207;47.502;18.940;2023-08-20T05:18:31;98532.22;;;20.47;100.00
65754;BME280;69207;47.502;18.940;2023-08-20T05:19:34;98536.53;;;20.50;100.00
65754;BME280;69207;47.502;18.940;2023-08-20T05:20:37;98544.97;;;20.52;100.00
65754;BME280;69207;47.502;18.940;2023-08-20T05:21:40;98543.69;;;20.55;100.00
65754;BME280;69207;47.502;18.940;2023-08-20T05:22:43;98540.97;;;20.57;100.00
65754;BME280;69207;47.502;18.940;2023-08-20T05:23:46;98541.03;;;20.59;100.00
65754;BME280;69207;47.502;18.940;2023-08-20T05:24:49;98539.06;;;20.62;100.00
65754;BME280;69207;47.502;18.940;2023-08-20T05:25:52;98540.47;;;20.63;100.00
65754;BME280;69207;47.502;18.940;2023-08-20T05:27:14;98548.19;;;20.64;100.00
65754;BME280;69207;47.502;18.940;2023-08-20T05:28:17;98542.84;;;20.70;100.00
65754;BME280;69207;47.502;18.940;2023-08-20T05:29:20;98546.44;;;20.73;100.00
65754;BME280;69207;47.502;18.940;2023-08-20T05:30:23;98542.28;;;20.74;100.00
65754;BME280;69207;47.502;18.940;2023-08-20T05:31:26;98546.50;;;20.75;100.00
65754;BME280;69207;47.502;18.940;2023-08-20T05:32:29;98541.56;;;20.73;100.00
65754;BME280;69207;47.502;18.940;2023-08-20T05:33:32;98543.00;;;20.74;100.00
65754;BME280;69207;47.502;18.940;2023-08-20T05:34:35;98539.53;;;20.76;100.00
65754;BME280;69207;47.502;18.940;2023-08-20T05:35:38;98542.28;;;20.74;100.00
65754;BME280;69207;47.502;18.940;2023-08-20T05:36:42;98541.62;;;20.75;100.00
65754;BME280;69207;47.502;18.940;2023-08-20T05:37:45;98543.03;;;20.76;100.00
65754;BME280;69207;47.502;18.940;2023-08-20T05:38:48;98539.53;;;20.76;100.00